Porter, Oklahoma
Current Conditions -  °F | °C
As of 2:53 AM on Thursday 23 Oct 2014 (Local Time) from KMKO Reporting Station
Light Rain Light Rain  
Wind Chill: 59°   Ceiling: 10000
Heat Index: 59°   Visibility: 10mi
Dew Point: 53°   Wind: 5mph
Humidity: 81%   Direction: 200°SSW
Pressure: 30.15"   Gusts: NA
Location:  35.87°N, 95.52°W
Report Text: KMKO 230753Z AUTO 20004KT 10SM -RA BKN100 BKN110 15/12 A3015 RMK AO2 RAB48 SLP204 P0000 T01500117
Loading
Personal Weather Stations






























Interactive Weather Map
Tropical Storm Tracking
New forecast layout! Learn more

10-Day Weather Forecast

Advertisements
Track Severe Weather on mobile